Time;durP1;ratioP1;P1;durP2;ratioP2;P2;SDS_P1;SDS_P2;PMS_P1;PMS_P2;Temp;Humidity;BMP_temperature;BMP_pressure;BME280_temperature;BME280_humidity;BME280_pressure;Samples;Min_cycle;Max_cycle;Signal;HPM_P1;HPM_P2
2021/05/06 00:02:08;;;;;;;59.10;4.55;;;6.40;66.30;;;;;;5113250;28;20232;-65
2021/05/06 00:32:05;;;;;;;57.40;2.40;;;6.50;66.60;;;;;;5113850;28;20223;-65
2021/05/06 00:34:31;;;;;;;57.67;2.72;;;6.50;66.40;;;;;;5112953;28;20212;-65
2021/05/06 00:36:58;;;;;;;57.42;2.65;;;6.50;67.00;;;;;;5112792;28;20208;-65
2021/05/06 00:39:27;;;;;;;57.67;2.50;;;6.50;66.60;;;;;;5112232;28;20212;-65
2021/05/06 00:42:17;;;;;;;57.70;2.70;;;6.50;66.90;;;;;;5112427;28;20328;-65
2021/05/06 01:01:19;;;;;;;57.47;2.53;;;6.60;65.70;;;;;;5086012;28;20235;-65
2021/05/06 01:03:59;;;;;;;57.42;2.75;;;6.60;65.30;;;;;;5111950;28;20264;-66
2021/05/06 01:06:27;;;;;;;57.38;2.38;;;6.70;65.00;;;;;;5112565;28;20186;-66
2021/05/06 01:08:55;;;;;;;57.42;2.35;;;6.70;64.90;;;;;;5112346;28;20204;-66
2021/05/06 01:11:27;;;;;;;57.50;2.35;;;6.70;65.00;;;;;;5112416;28;20216;-65
2021/05/06 01:13:54;;;;;;;57.47;2.15;;;6.80;64.60;;;;;;5111666;28;20200;-65
2021/05/06 01:16:21;;;;;;;57.80;2.40;;;6.90;63.90;;;;;;5112123;28;20303;-65
2021/05/06 01:18:48;;;;;;;57.35;2.40;;;6.90;63.90;;;;;;5112181;28;20303;-65
2021/05/06 01:21:15;;;;;;;56.90;2.47;;;6.90;63.90;;;;;;5112330;28;20255;-65
2021/05/06 01:23:43;;;;;;;57.97;2.40;;;6.90;63.90;;;;;;5111862;28;20265;-65
2021/05/06 01:26:13;;;;;;;57.45;2.30;;;6.90;63.90;;;;;;5112453;28;20212;-65
2021/05/06 01:28:42;;;;;;;56.83;2.40;;;6.90;63.90;;;;;;5111951;28;20672;-65
2021/05/06 01:31:11;;;;;;;56.80;2.40;;;6.90;63.90;;;;;;5111849;28;20223;-65
2021/05/06 01:33:41;;;;;;;57.50;2.25;;;6.90;63.50;;;;;;5111759;28;20286;-64
2021/05/06 01:36:10;;;;;;;57.38;2.40;;;6.90;63.30;;;;;;5112342;28;20277;-65
2021/05/06 01:38:56;;;;;;;57.20;2.40;;;7.00;63.30;;;;;;5111581;28;20230;-65
2021/05/06 01:44:12;;;;;;;57.47;2.28;;;7.00;63.30;;;;;;5111511;28;20679;-65
2021/05/06 01:47:06;;;;;;;57.60;2.75;;;7.00;63.20;;;;;;5111760;28;20204;-65
2021/05/06 01:49:50;;;;;;;57.47;1.92;;;7.00;63.10;;;;;;5111985;28;20236;-65
2021/05/06 01:58:02;;;;;;;57.60;2.35;;;7.00;63.20;;;;;;5116254;28;20571;-65
2021/05/06 02:00:29;;;;;;;57.50;2.20;;;7.00;63.60;;;;;;5115613;28;20236;-65
2021/05/06 02:02:57;;;;;;;57.80;2.42;;;7.10;62.80;;;;;;5115613;28;20212;-65
2021/05/06 02:05:24;;;;;;;57.25;2.10;;;7.00;62.80;;;;;;5115526;28;20211;-65
2021/05/06 02:07:50;;;;;;;57.45;2.30;;;7.10;62.30;;;;;;5115967;28;20353;-65
2021/05/06 02:10:20;;;;;;;57.50;2.40;;;7.10;62.00;;;;;;5115586;28;20221;-66
2021/05/06 02:12:47;;;;;;;57.45;2.60;;;7.10;61.80;;;;;;5115373;28;20203;-65
2021/05/06 02:15:15;;;;;;;57.50;2.45;;;7.10;61.20;;;;;;5115407;28;20674;-66
2021/05/06 02:17:42;;;;;;;57.38;2.30;;;7.10;61.40;;;;;;5115489;28;20213;-66
2021/05/06 02:20:10;;;;;;;57.40;2.25;;;7.20;60.80;;;;;;5115269;28;20223;-65
2021/05/06 02:22:37;;;;;;;57.40;2.40;;;7.20;60.10;;;;;;5115122;28;20246;-65
2021/05/06 02:25:04;;;;;;;57.30;2.28;;;7.30;59.00;;;;;;5115487;28;20286;-65
2021/05/06 02:27:31;;;;;;;57.47;2.28;;;7.30;58.70;;;;;;5115282;28;20208;-66
2021/05/06 02:29:57;;;;;;;57.40;2.40;;;7.30;57.50;;;;;;5115480;28;20300;-65
2021/05/06 02:32:24;;;;;;;57.47;2.20;;;7.40;57.50;;;;;;5115225;28;20204;-65
2021/05/06 02:34:50;;;;;;;57.28;2.40;;;7.40;57.50;;;;;;5115327;28;20579;-66
2021/05/06 02:37:18;;;;;;;57.05;2.40;;;7.40;57.50;;;;;;5115135;28;20294;-65
2021/05/06 02:39:45;;;;;;;57.27;2.20;;;7.30;57.40;;;;;;5114990;28;20258;-65
2021/05/06 02:42:12;;;;;;;57.58;2.45;;;7.30;57.80;;;;;;5114722;28;20450;-64
2021/05/06 02:44:40;;;;;;;57.08;2.30;;;7.30;58.60;;;;;;5114865;28;20298;-66
2021/05/06 02:47:07;;;;;;;57.30;2.03;;;7.30;59.00;;;;;;5115099;28;20200;-64
2021/05/06 02:49:33;;;;;;;57.25;2.03;;;7.20;59.10;;;;;;5114899;27;20204;-64
2021/05/06 02:52:05;;;;;;;57.17;2.20;;;7.20;59.50;;;;;;5114762;28;20310;-65
2021/05/06 02:54:37;;;;;;;57.50;2.20;;;7.20;59.80;;;;;;5115284;28;20652;-65
2021/05/06 02:57:09;;;;;;;57.35;2.20;;;7.30;60.00;;;;;;5115240;28;20209;-65
2021/05/06 03:05:10;;;;;;;57.25;2.30;;;7.20;60.70;;;;;;5098482;27;20204;-65
2021/05/06 03:07:39;;;;;;;58.17;2.80;;;7.20;60.60;;;;;;5114714;28;20296;-65
2021/05/06 03:10:14;;;;;;;57.50;2.22;;;7.20;60.70;;;;;;5114699;28;20232;-65
2021/05/06 03:13:00;;;;;;;57.88;2.70;;;7.20;60.80;;;;;;5114367;28;20235;-65
2021/05/06 03:21:31;;;;;;;57.50;2.38;;;7.20;61.20;;;;;;5114522;28;20713;-65
2021/05/06 03:23:57;;;;;;;57.47;2.17;;;7.20;61.00;;;;;;5113855;28;20184;-65
2021/05/06 03:26:24;;;;;;;57.50;2.28;;;7.20;61.00;;;;;;5114223;28;20207;-65
2021/05/06 03:28:53;;;;;;;56.75;2.22;;;7.20;61.00;;;;;;5114337;28;20281;-66
2021/05/06 03:42:13;;;;;;;57.35;2.20;;;7.20;59.40;;;;;;5113527;28;20227;-66
2021/05/06 03:45:04;;;;;;;57.53;2.25;;;7.20;59.40;;;;;;5113669;28;20204;-66
2021/05/06 04:13:05;;;;;;;57.55;2.58;;;6.60;65.00;;;;;;5113029;28;20584;-66
2021/05/06 04:15:55;;;;;;;57.38;2.30;;;6.60;65.30;;;;;;5113303;28;20219;-66
2021/05/06 04:18:24;;;;;;;57.78;2.58;;;6.60;65.60;;;;;;5113226;28;20196;-66
2021/05/06 04:26:27;;;;;;;57.65;2.63;;;6.50;66.40;;;;;;5112951;28;20227;-67
2021/05/06 04:37:04;;;;;;;57.58;2.60;;;6.50;67.50;;;;;;5112921;28;20249;-66
2021/05/06 04:39:46;;;;;;;57.58;2.60;;;6.50;67.50;;;;;;5112939;28;20211;-66
2021/05/06 04:54:02;;;;;;;57.50;2.35;;;6.60;68.50;;;;;;5112104;28;20663;-67
2021/05/06 04:56:42;;;;;;;57.88;2.88;;;6.60;68.80;;;;;;5112779;28;20315;-66
2021/05/06 05:04:46;;;;;;;57.38;2.60;;;6.70;68.40;;;;;;5112310;28;20244;-66
2021/05/06 05:07:15;;;;;;;57.65;2.53;;;6.70;68.80;;;;;;5112430;28;20205;-65
2021/05/06 05:09:56;;;;;;;57.55;2.50;;;6.80;68.90;;;;;;5112192;28;20207;-66
2021/05/06 05:17:37;;;;;;;57.17;2.78;;;6.80;69.40;;;;;;5098702;28;20656;-66
2021/05/06 05:18:01;;;;;;;57.90;2.90;;;6.80;69.50;;;;;;5112073;28;20212;-66
2021/05/06 05:20:37;;;;;;;57.38;2.40;;;6.90;70.10;;;;;;5111994;28;20280;-66
2021/05/06 05:25:50;;;;;;;57.70;2.50;;;7.00;70.60;;;;;;5111536;28;20202;-65
2021/05/06 05:28:17;;;;;;;57.58;2.60;;;7.10;70.60;;;;;;5112261;28;20204;-65
2021/05/06 05:30:43;;;;;;;57.28;2.55;;;7.20;69.60;;;;;;5111827;28;20270;-65
2021/05/06 05:33:10;;;;;;;57.40;2.55;;;7.20;69.60;;;;;;5111872;28;20208;-66
2021/05/06 05:35:40;;;;;;;57.40;2.40;;;7.30;69.70;;;;;;5112124;28;20304;-65
2021/05/06 05:38:12;;;;;;;57.58;2.40;;;7.40;69.20;;;;;;5112156;28;20217;-65
2021/05/06 05:40:44;;;;;;;57.13;2.30;;;7.50;68.90;;;;;;5111876;28;20235;-66
2021/05/06 05:43:37;;;;;;;57.55;2.35;;;7.60;68.80;;;;;;5111644;28;20446;-65
2021/05/06 05:54:35;;;;;;;57.45;2.20;;;7.80;67.60;;;;;;5112044;28;20474;-65
2021/05/06 05:57:01;;;;;;;57.43;2.23;;;7.90;67.50;;;;;;5111948;28;20205;-65
2021/05/06 05:59:28;;;;;;;57.40;2.30;;;8.00;67.20;;;;;;5111871;28;20542;-65
2021/05/06 06:01:55;;;;;;;57.60;2.25;;;8.00;67.00;;;;;;5111290;28;20481;-65
2021/05/06 06:04:21;;;;;;;57.73;2.30;;;8.10;66.70;;;;;;5111674;28;20316;-66
2021/05/06 06:06:48;;;;;;;57.47;2.50;;;8.10;66.60;;;;;;5111809;28;20537;-66
2021/05/06 06:09:14;;;;;;;57.50;2.17;;;8.00;66.30;;;;;;5111985;28;20294;-65
2021/05/06 06:11:40;;;;;;;57.50;2.45;;;8.00;66.40;;;;;;5111894;28;20224;-65
2021/05/06 06:14:09;;;;;;;57.38;2.38;;;8.00;66.50;;;;;;5111077;28;20297;-65
2021/05/06 06:16:38;;;;;;;57.37;2.37;;;8.00;66.40;;;;;;5111416;28;20224;-65
2021/05/06 06:19:05;;;;;;;57.35;2.00;;;8.10;64.70;;;;;;5111905;28;20459;-65
2021/05/06 06:21:38;;;;;;;57.42;2.20;;;8.00;63.50;;;;;;5112027;28;20711;-65
2021/05/06 06:24:06;;;;;;;57.27;2.30;;;8.10;63.50;;;;;;5111310;28;20227;-65
2021/05/06 06:26:32;;;;;;;57.30;2.08;;;8.00;63.10;;;;;;5111538;28;20883;-65
2021/05/06 06:29:02;;;;;;;58.17;2.97;;;8.10;63.00;;;;;;5111599;28;20742;-65
2021/05/06 06:31:33;;;;;;;57.50;2.30;;;8.10;63.30;;;;;;5109839;28;20480;-66
2021/05/06 06:33:59;;;;;;;57.20;2.13;;;8.10;63.00;;;;;;5098876;28;20205;-66
2021/05/06 06:36:26;;;;;;;57.37;2.40;;;8.00;63.30;;;;;;5091483;28;20538;-65
2021/05/06 06:38:53;;;;;;;57.05;2.30;;;8.00;63.40;;;;;;5094195;28;20533;-67
2021/05/06 06:41:21;;;;;;;57.38;2.13;;;8.00;63.90;;;;;;5094743;28;20225;-66
2021/05/06 06:43:50;;;;;;;58.72;2.25;;;7.90;64.00;;;;;;5094165;28;20239;-66
2021/05/06 06:46:17;;;;;;;57.47;2.17;;;7.80;64.50;;;;;;5094823;28;20209;-67
2021/05/06 06:48:43;;;;;;;57.47;2.13;;;7.80;64.90;;;;;;5094456;28;20241;-66
2021/05/06 06:51:10;;;;;;;57.10;2.30;;;7.80;65.50;;;;;;5093654;28;20308;-66
2021/05/06 06:53:37;;;;;;;57.57;2.67;;;7.80;66.00;;;;;;5094216;28;20237;-66
2021/05/06 06:56:04;;;;;;;57.25;2.15;;;7.80;66.50;;;;;;5094487;28;20477;-66
2021/05/06 06:58:31;;;;;;;57.90;2.92;;;7.80;66.10;;;;;;5094462;28;20288;-66
2021/05/06 07:00:58;;;;;;;56.80;2.10;;;7.70;66.50;;;;;;5094259;28;20259;-67
2021/05/06 07:03:25;;;;;;;57.08;2.30;;;7.80;67.00;;;;;;5094225;28;20447;-66
2021/05/06 07:05:51;;;;;;;57.28;2.10;;;7.80;67.30;;;;;;5094273;28;20206;-67
2021/05/06 07:08:19;;;;;;;57.13;2.15;;;7.80;67.60;;;;;;5094313;28;20242;-66
2021/05/06 07:10:47;;;;;;;57.27;2.40;;;7.80;67.60;;;;;;5094052;28;20217;-66
2021/05/06 07:13:16;;;;;;;57.50;2.58;;;7.80;68.10;;;;;;5097448;28;20975;-67
2021/05/06 07:15:45;;;;;;;57.40;2.50;;;7.70;67.80;;;;;;5113927;28;20208;-66
2021/05/06 07:18:11;;;;;;;57.65;2.60;;;7.80;67.90;;;;;;5114332;28;20213;-66
2021/05/06 07:20:38;;;;;;;58.17;2.40;;;7.80;67.00;;;;;;5114362;28;20676;-66
2021/05/06 07:23:04;;;;;;;57.17;1.90;;;7.80;67.20;;;;;;5114317;28;20209;-67
2021/05/06 07:25:30;;;;;;;57.47;2.13;;;7.80;65.70;;;;;;5113392;28;21014;-66
2021/05/06 07:27:58;;;;;;;57.17;2.28;;;7.90;65.20;;;;;;5114333;28;20212;-67
2021/05/06 07:30:24;;;;;;;57.13;2.10;;;8.00;65.20;;;;;;5113835;28;20721;-66
2021/05/06 07:32:50;;;;;;;57.17;2.20;;;8.10;64.70;;;;;;5113767;28;20889;-67
2021/05/06 07:35:17;;;;;;;57.58;2.47;;;8.20;64.80;;;;;;5112803;27;20551;-67
2021/05/06 07:37:43;;;;;;;57.50;2.50;;;8.20;64.30;;;;;;5111528;28;20299;-68
2021/05/06 07:40:11;;;;;;;57.20;2.22;;;8.30;64.00;;;;;;5113756;27;20318;-67
2021/05/06 07:42:39;;;;;;;57.42;2.60;;;8.30;63.30;;;;;;5113494;28;20225;-66
2021/05/06 07:45:08;;;;;;;57.17;2.28;;;8.40;63.10;;;;;;5113173;28;20227;-67
2021/05/06 07:47:34;;;;;;;57.35;2.33;;;8.50;63.40;;;;;;5113615;28;20241;-65
2021/05/06 07:50:01;;;;;;;57.40;2.40;;;8.60;63.00;;;;;;5113342;28;20269;-65
2021/05/06 07:52:27;;;;;;;56.53;2.30;;;8.60;62.20;;;;;;5112755;28;20194;-65
2021/05/06 07:54:55;;;;;;;57.47;2.40;;;8.70;61.70;;;;;;5113287;28;20451;-64
2021/05/06 07:57:21;;;;;;;58.07;2.53;;;8.80;61.70;;;;;;5113695;28;20451;-65
2021/05/06 07:59:48;;;;;;;57.27;2.40;;;9.00;61.40;;;;;;5113424;28;20535;-65
2021/05/06 08:02:16;;;;;;;57.07;2.00;;;9.20;60.60;;;;;;5113130;28;20479;-64
2021/05/06 08:04:42;;;;;;;57.07;2.30;;;9.30;59.70;;;;;;5112311;27;20757;-64
2021/05/06 08:07:09;;;;;;;57.33;2.90;;;9.30;57.60;;;;;;5112585;28;20464;-66
2021/05/06 08:09:35;;;;;;;57.50;2.50;;;9.30;57.80;;;;;;5113519;28;20888;-65
2021/05/06 08:12:03;;;;;;;57.27;2.40;;;9.40;55.30;;;;;;5113029;27;21000;-66
2021/05/06 08:14:29;;;;;;;57.27;2.43;;;9.50;54.80;;;;;;5113152;28;20456;-65
2021/05/06 08:16:55;;;;;;;57.20;2.30;;;9.60;53.60;;;;;;5112977;28;20546;-65
2021/05/06 08:19:23;;;;;;;57.47;2.50;;;9.70;52.50;;;;;;5113213;28;20444;-66
2021/05/06 08:21:49;;;;;;;57.17;2.37;;;9.80;51.30;;;;;;5112895;28;20569;-65
2021/05/06 08:24:15;;;;;;;57.00;2.17;;;9.80;50.50;;;;;;5113059;28;20499;-66
2021/05/06 08:26:42;;;;;;;57.60;2.80;;;9.90;49.60;;;;;;5112869;28;20561;-66
2021/05/06 08:29:08;;;;;;;57.27;2.33;;;9.80;50.00;;;;;;5113032;28;20476;-65
2021/05/06 08:31:35;;;;;;;57.20;2.23;;;9.90;49.20;;;;;;5112964;28;20768;-65
2021/05/06 08:34:01;;;;;;;57.20;2.20;;;9.90;48.60;;;;;;5112362;28;20451;-66
2021/05/06 08:36:28;;;;;;;57.07;2.47;;;10.00;47.50;;;;;;5112839;28;20538;-66
2021/05/06 08:38:55;;;;;;;57.23;2.37;;;9.90;46.80;;;;;;5112721;28;21037;-65
2021/05/06 08:41:22;;;;;;;57.20;2.20;;;9.90;47.40;;;;;;5112304;28;20541;-65
2021/05/06 08:43:53;;;;;;;57.40;2.80;;;9.90;47.60;;;;;;5112333;28;20912;-65
2021/05/06 08:46:20;;;;;;;57.27;2.30;;;9.90;47.80;;;;;;5112460;28;20948;-65
2021/05/06 08:48:47;;;;;;;57.10;2.27;;;10.00;46.40;;;;;;5112799;28;20811;-65
2021/05/06 08:51:14;;;;;;;57.23;2.17;;;10.00;45.10;;;;;;5112640;28;20969;-65
2021/05/06 08:53:43;;;;;;;57.87;2.97;;;10.00;45.40;;;;;;5112233;28;20466;-66
2021/05/06 08:56:09;;;;;;;57.23;2.40;;;10.00;45.10;;;;;;5112278;28;20982;-66
2021/05/06 08:58:36;;;;;;;57.27;2.13;;;10.10;45.00;;;;;;5112730;28;20974;-65
2021/05/06 09:01:02;;;;;;;57.20;2.03;;;10.10;44.30;;;;;;5110871;28;20507;-65
2021/05/06 09:03:28;;;;;;;57.20;2.00;;;10.10;44.20;;;;;;5111884;28;20461;-66
2021/05/06 09:06:12;;;;;;;57.17;2.30;;;10.20;44.30;;;;;;5112512;28;20526;-65
2021/05/06 09:08:39;;;;;;;57.27;2.13;;;10.20;44.90;;;;;;5109430;28;20449;-65
2021/05/06 09:11:07;;;;;;;56.97;2.00;;;10.20;45.00;;;;;;5112227;28;20467;-65
2021/05/06 09:13:34;;;;;;;57.10;2.20;;;10.30;45.00;;;;;;5111560;28;20452;-65
2021/05/06 09:16:02;;;;;;;56.97;2.03;;;10.30;44.80;;;;;;5112280;28;20448;-66
2021/05/06 09:18:41;;;;;;;57.03;2.10;;;10.40;44.80;;;;;;5112232;28;20477;-65
2021/05/06 09:21:10;;;;;;;57.37;2.70;;;10.30;44.30;;;;;;5111918;28;20487;-65
2021/05/06 09:23:37;;;;;;;57.30;2.10;;;10.30;44.40;;;;;;5111641;28;20528;-66
2021/05/06 09:26:06;;;;;;;57.20;1.93;;;10.30;44.60;;;;;;5111904;28;20451;-66
2021/05/06 09:28:34;;;;;;;57.10;2.20;;;10.40;44.90;;;;;;5111828;28;20453;-65
2021/05/06 09:31:03;;;;;;;56.93;2.13;;;10.30;44.80;;;;;;5111748;28;20468;-65
2021/05/06 09:33:32;;;;;;;56.93;2.13;;;10.40;45.00;;;;;;5111426;28;20472;-65
2021/05/06 09:36:17;;;;;;;57.03;2.47;;;10.30;44.40;;;;;;5111842;28;20452;-65
2021/05/06 09:38:46;;;;;;;57.20;2.60;;;10.30;45.00;;;;;;5110985;28;20532;-66
2021/05/06 09:41:17;;;;;;;57.37;2.40;;;10.30;45.50;;;;;;5111490;28;20915;-66
2021/05/06 09:43:44;;;;;;;57.47;2.77;;;10.30;45.10;;;;;;5111203;28;20536;-66
2021/05/06 09:46:26;;;;;;;57.03;2.17;;;10.30;45.10;;;;;;5111776;28;20459;-66
2021/05/06 09:48:58;;;;;;;57.17;2.23;;;10.30;45.40;;;;;;5109189;27;20460;-66
2021/05/06 09:51:36;;;;;;;57.07;2.30;;;10.40;45.50;;;;;;5111674;28;20468;-66
2021/05/06 09:54:05;;;;;;;57.27;2.60;;;10.40;45.30;;;;;;5111488;28;20514;-65
2021/05/06 09:56:32;;;;;;;57.23;2.57;;;10.40;45.10;;;;;;5111794;28;20471;-67
2021/05/06 09:58:59;;;;;;;59.00;2.77;;;10.40;44.10;;;;;;5111503;28;20543;-66
2021/05/06 10:01:34;;;;;;;57.37;2.53;;;10.40;44.10;;;;;;5111445;28;21016;-66
2021/05/06 10:04:19;;;;;;;57.23;2.27;;;10.40;44.30;;;;;;5110927;28;20936;-65
2021/05/06 10:07:09;;;;;;;57.20;2.43;;;10.40;44.50;;;;;;5111565;28;20526;-65
2021/05/06 10:09:49;;;;;;;57.23;2.20;;;10.40;44.80;;;;;;5111445;28;20488;-66
2021/05/06 10:12:16;;;;;;;57.30;2.30;;;10.50;43.60;;;;;;5113445;28;20487;-65
2021/05/06 10:14:45;;;;;;;57.23;2.23;;;10.50;43.30;;;;;;5115311;28;20489;-65
2021/05/06 10:17:12;;;;;;;57.63;2.47;;;10.50;43.70;;;;;;5114448;28;20460;-65
2021/05/06 10:19:39;;;;;;;57.47;2.53;;;10.50;43.40;;;;;;5112828;28;20505;-65
2021/05/06 10:22:07;;;;;;;58.27;2.80;;;10.50;43.60;;;;;;5115237;28;20519;-65
2021/05/06 10:24:33;;;;;;;57.27;2.37;;;10.50;44.30;;;;;;5115050;28;20539;-65
2021/05/06 10:27:01;;;;;;;57.07;2.10;;;10.50;45.10;;;;;;5115416;28;20730;-65
2021/05/06 10:29:29;;;;;;;57.50;2.30;;;10.50;45.20;;;;;;5115356;27;20539;-64
2021/05/06 10:31:58;;;;;;;57.30;2.50;;;10.50;45.40;;;;;;5114755;28;20465;-65
2021/05/06 10:34:24;;;;;;;57.27;2.30;;;10.50;45.60;;;;;;5115066;28;20451;-64
2021/05/06 10:36:51;;;;;;;57.10;2.27;;;10.60;46.00;;;;;;5115210;28;20874;-65
2021/05/06 10:39:17;;;;;;;57.23;2.67;;;10.60;45.90;;;;;;5114666;28;20956;-65
2021/05/06 10:41:44;;;;;;;57.40;2.50;;;10.50;46.30;;;;;;5115234;28;20495;-65
2021/05/06 10:44:11;;;;;;;57.33;2.60;;;10.50;46.80;;;;;;5114581;28;20543;-64
2021/05/06 10:46:59;;;;;;;57.03;2.10;;;10.50;47.40;;;;;;5114728;28;20444;-65
2021/05/06 10:49:29;;;;;;;57.10;2.33;;;10.50;48.50;;;;;;5110327;28;20447;-66
2021/05/06 10:52:04;;;;;;;57.13;2.20;;;10.50;49.50;;;;;;5098698;28;20473;-66
2021/05/06 10:54:38;;;;;;;56.90;1.90;;;10.50;49.50;;;;;;5114787;28;20455;-65
2021/05/06 10:57:28;;;;;;;57.47;2.63;;;10.50;50.40;;;;;;5114762;28;20470;-65
2021/05/06 10:59:55;;;;;;;57.17;2.20;;;10.50;50.10;;;;;;5114516;28;20444;-66
2021/05/06 11:02:49;;;;;;;57.37;2.50;;;10.50;51.40;;;;;;5114225;28;20587;-65
2021/05/06 11:05:16;;;;;;;57.33;2.10;;;10.50;50.80;;;;;;5114398;28;20448;-66
2021/05/06 11:08:03;;;;;;;57.27;2.30;;;10.60;50.50;;;;;;5114590;28;20445;-66
2021/05/06 11:10:30;;;;;;;57.10;2.10;;;10.60;49.60;;;;;;5114066;28;20468;-66
2021/05/06 11:12:58;;;;;;;57.10;2.07;;;10.60;49.60;;;;;;5114238;28;20532;-66
2021/05/06 11:15:25;;;;;;;57.33;2.60;;;10.50;49.50;;;;;;5114379;28;20539;-66
2021/05/06 11:17:53;;;;;;;57.17;2.10;;;10.50;49.50;;;;;;5114139;28;20542;-66
2021/05/06 11:20:51;;;;;;;57.20;2.20;;;10.50;48.30;;;;;;5111195;28;20554;-67
2021/05/06 11:23:23;;;;;;;57.07;2.10;;;10.50;47.60;;;;;;5030002;28;20448;-66
2021/05/06 11:25:52;;;;;;;57.07;2.20;;;10.50;48.60;;;;;;5098079;28;20812;-66
2021/05/06 11:28:41;;;;;;;57.27;2.23;;;10.60;47.00;;;;;;5114301;28;20449;-67
2021/05/06 11:31:07;;;;;;;57.47;2.50;;;10.50;46.60;;;;;;5113976;28;20491;-65
2021/05/06 11:33:35;;;;;;;57.20;2.17;;;10.60;47.20;;;;;;5113112;28;20493;-65
2021/05/06 11:36:06;;;;;;;57.40;2.17;;;10.60;47.10;;;;;;5113815;28;20543;-66
2021/05/06 11:38:51;;;;;;;58.37;2.27;;;10.60;46.70;;;;;;5112128;28;20456;-66
2021/05/06 11:41:25;;;;;;;57.13;2.00;;;10.60;46.90;;;;;;5112892;28;21094;-65
2021/05/06 11:43:53;;;;;;;57.27;2.10;;;10.50;47.10;;;;;;5113075;28;20476;-66
2021/05/06 11:46:21;;;;;;;57.03;2.10;;;10.50;47.50;;;;;;5113644;28;20455;-65
2021/05/06 11:48:51;;;;;;;57.07;2.00;;;10.60;47.20;;;;;;5113742;28;20448;-65
2021/05/06 11:51:29;;;;;;;56.87;2.10;;;10.60;47.20;;;;;;5112638;28;20468;-66
2021/05/06 11:54:10;;;;;;;57.27;2.30;;;10.60;46.90;;;;;;5112915;28;20531;-67
2021/05/06 11:56:39;;;;;;;57.13;2.10;;;10.70;46.30;;;;;;5113535;28;20454;-66
2021/05/06 11:59:06;;;;;;;57.17;2.10;;;10.70;46.10;;;;;;5113558;28;20788;-66
2021/05/06 12:01:33;;;;;;;57.27;2.10;;;10.70;45.70;;;;;;5113342;28;21071;-67
2021/05/06 12:04:00;;;;;;;58.27;2.77;;;10.70;46.50;;;;;;5112692;28;20484;-66
2021/05/06 12:06:32;;;;;;;57.07;2.17;;;10.60;45.60;;;;;;5113324;28;20532;-66
2021/05/06 12:08:59;;;;;;;57.17;2.30;;;10.70;46.30;;;;;;5113339;28;20548;-65
2021/05/06 12:11:39;;;;;;;57.07;2.20;;;10.80;44.60;;;;;;5112146;28;20902;-67
2021/05/06 12:14:06;;;;;;;56.90;2.40;;;10.80;44.70;;;;;;5112037;28;20531;-66
2021/05/06 12:16:34;;;;;;;57.20;2.17;;;10.80;44.50;;;;;;5112230;28;20903;-68
2021/05/06 12:19:06;;;;;;;58.40;2.77;;;10.70;44.40;;;;;;5112272;28;21023;-64
2021/05/06 12:21:46;;;;;;;57.67;2.87;;;10.70;44.70;;;;;;5111893;28;20908;-65
2021/05/06 12:24:14;;;;;;;57.27;2.50;;;10.70;44.40;;;;;;5111937;28;20541;-64
2021/05/06 12:26:41;;;;;;;57.20;2.20;;;10.70;44.40;;;;;;5113057;28;20887;-66
2021/05/06 12:29:19;;;;;;;57.50;2.77;;;10.70;44.40;;;;;;5112872;28;20501;-65
2021/05/06 12:31:48;;;;;;;57.20;2.27;;;10.70;45.20;;;;;;5112687;28;20467;-66
2021/05/06 12:34:16;;;;;;;57.40;2.70;;;10.70;45.60;;;;;;5111806;28;20460;-65
2021/05/06 12:36:49;;;;;;;57.20;2.30;;;10.70;45.00;;;;;;5112307;28;20452;-65
2021/05/06 12:39:17;;;;;;;57.97;2.60;;;10.60;45.90;;;;;;5112995;28;20487;-65
2021/05/06 12:41:50;;;;;;;57.37;2.30;;;10.60;46.40;;;;;;5112629;28;20623;-66
2021/05/06 12:44:38;;;;;;;57.30;2.47;;;10.60;47.00;;;;;;5112389;28;20820;-66
2021/05/06 12:47:12;;;;;;;57.30;2.40;;;10.50;47.50;;;;;;5112858;28;20806;-66
2021/05/06 12:49:39;;;;;;;57.07;2.40;;;10.50;48.00;;;;;;5112685;28;20443;-66
2021/05/06 12:52:06;;;;;;;57.40;2.30;;;10.50;48.40;;;;;;5111673;28;20461;-66
2021/05/06 12:54:34;;;;;;;57.20;2.30;;;10.40;49.30;;;;;;5112168;28;20476;-66
2021/05/06 12:57:14;;;;;;;57.07;2.10;;;10.40;50.80;;;;;;5112761;28;20505;-66
2021/05/06 12:59:44;;;;;;;57.07;2.30;;;10.40;52.50;;;;;;5112499;28;20495;-66
2021/05/06 13:02:11;;;;;;;57.23;2.20;;;10.40;52.30;;;;;;5111910;28;20477;-66
2021/05/06 13:04:46;;;;;;;57.23;2.20;;;10.40;53.00;;;;;;5112340;28;20488;-66
2021/05/06 13:07:13;;;;;;;57.27;2.17;;;10.40;53.50;;;;;;5111966;28;20495;-65
2021/05/06 13:09:45;;;;;;;57.37;2.30;;;10.40;53.80;;;;;;5112110;28;20474;-65
2021/05/06 13:12:14;;;;;;;57.40;2.40;;;10.20;54.30;;;;;;5112022;28;20469;-66
2021/05/06 13:14:48;;;;;;;57.27;2.30;;;10.10;55.10;;;;;;5111912;28;20460;-66
2021/05/06 13:17:30;;;;;;;56.93;2.20;;;10.10;57.10;;;;;;5112006;28;20460;-66
2021/05/06 13:19:59;;;;;;;57.17;2.30;;;10.10;59.30;;;;;;5112358;28;20522;-66
2021/05/06 13:22:26;;;;;;;57.07;2.10;;;10.00;59.20;;;;;;5111485;27;20552;-66
2021/05/06 13:24:52;;;;;;;57.00;2.20;;;9.90;60.80;;;;;;5111869;28;20530;-66
2021/05/06 13:27:21;;;;;;;57.13;2.10;;;9.80;61.20;;;;;;5112027;28;20449;-67
2021/05/06 13:29:49;;;;;;;57.07;2.23;;;9.80;62.40;;;;;;5112038;28;20535;-65
2021/05/06 13:32:16;;;;;;;57.30;2.50;;;9.70;64.90;;;;;;5111524;28;20463;-66
2021/05/06 13:34:55;;;;;;;57.23;2.20;;;9.70;68.40;;;;;;5111983;28;20455;-65
2021/05/06 13:37:32;;;;;;;57.30;2.20;;;9.70;69.80;;;;;;5112208;28;20453;-66
2021/05/06 13:39:59;;;;;;;57.37;2.13;;;9.50;70.20;;;;;;5111901;28;20530;-65
2021/05/06 13:42:25;;;;;;;57.37;2.27;;;9.40;71.70;;;;;;5111341;28;20481;-66
2021/05/06 13:44:54;;;;;;;57.17;2.10;;;9.30;74.40;;;;;;5111839;28;20478;-66
2021/05/06 13:47:24;;;;;;;57.37;2.30;;;9.20;76.30;;;;;;5114634;28;20834;-66
2021/05/06 13:49:50;;;;;;;57.50;2.20;;;9.20;81.40;;;;;;5116120;28;20449;-66
2021/05/06 13:52:17;;;;;;;57.47;2.27;;;9.20;87.40;;;;;;5115886;28;20447;-66
2021/05/06 13:54:45;;;;;;;57.40;2.70;;;9.20;91.40;;;;;;5115554;28;20456;-66
2021/05/06 13:57:11;;;;;;;57.40;2.73;;;9.10;93.40;;;;;;5115729;28;20444;-66
2021/05/06 13:59:37;;;;;;;57.37;2.53;;;9.10;95.90;;;;;;5116013;28;20448;-67
2021/05/06 14:02:04;;;;;;;57.27;2.60;;;9.10;99.40;;;;;;5115323;27;21040;-67
2021/05/06 14:04:30;;;;;;;58.70;4.13;;;9.10;99.90;;;;;;5115818;28;20960;-66
2021/05/06 14:06:56;;;;;;;62.33;3.80;;;9.10;99.90;;;;;;5115650;28;20526;-67
2021/05/06 14:09:23;;;;;;;57.40;2.30;;;9.20;99.90;;;;;;5114859;28;20451;-66
2021/05/06 14:11:51;;;;;;;57.27;2.40;;;9.10;99.90;;;;;;5115797;27;20593;-67
2021/05/06 14:14:17;;;;;;;57.07;2.20;;;9.10;99.90;;;;;;5115538;28;20456;-66
2021/05/06 14:16:44;;;;;;;57.33;2.43;;;9.10;99.90;;;;;;5115634;28;20464;-66
2021/05/06 14:19:12;;;;;;;57.30;2.33;;;9.10;99.90;;;;;;5115450;28;20941;-67
2021/05/06 14:21:41;;;;;;;57.13;2.50;;;9.10;99.90;;;;;;5115436;28;20480;-67
2021/05/06 14:24:10;;;;;;;57.47;2.30;;;9.10;99.90;;;;;;5114828;28;20455;-67
2021/05/06 14:26:37;;;;;;;57.23;2.40;;;9.20;99.90;;;;;;5115534;28;20448;-67
2021/05/06 14:29:05;;;;;;;57.27;2.37;;;9.30;99.90;;;;;;5115128;28;20502;-66
2021/05/06 14:31:31;;;;;;;56.97;2.17;;;9.40;99.90;;;;;;5115402;28;20986;-66
2021/05/06 14:33:57;;;;;;;57.57;2.57;;;9.50;99.90;;;;;;5114580;28;20535;-66
2021/05/06 14:36:24;;;;;;;57.50;2.40;;;9.50;99.90;;;;;;5115006;28;20944;-66
2021/05/06 14:38:50;;;;;;;58.57;2.50;;;9.50;99.90;;;;;;5114889;28;20448;-66
2021/05/06 14:41:17;;;;;;;57.30;2.40;;;9.50;99.90;;;;;;5115116;28;20516;-66
2021/05/06 14:43:43;;;;;;;57.37;2.23;;;9.40;99.90;;;;;;5114527;28;20476;-67
2021/05/06 14:46:10;;;;;;;57.23;2.37;;;9.40;99.90;;;;;;5105241;28;20449;-66
2021/05/06 14:48:37;;;;;;;57.20;2.20;;;9.40;99.90;;;;;;5104110;28;20459;-66
2021/05/06 14:51:03;;;;;;;57.17;2.07;;;9.30;99.90;;;;;;5114735;28;20843;-67
2021/05/06 14:53:30;;;;;;;57.27;2.30;;;9.20;99.90;;;;;;5114112;28;20462;-67
2021/05/06 14:55:56;;;;;;;57.30;2.40;;;9.10;99.90;;;;;;5114681;28;20504;-67
2021/05/06 14:58:23;;;;;;;57.43;2.90;;;9.00;99.90;;;;;;5113595;28;20458;-67
2021/05/06 15:00:50;;;;;;;57.37;2.60;;;9.00;99.90;;;;;;5114702;28;20507;-67
2021/05/06 15:03:17;;;;;;;57.10;2.33;;;9.00;99.90;;;;;;5114203;28;20525;-67
2021/05/06 15:05:43;;;;;;;57.40;2.70;;;9.10;99.90;;;;;;5114255;28;20539;-67
2021/05/06 15:08:09;;;;;;;57.60;2.80;;;9.00;99.90;;;;;;5114809;28;20465;-68
2021/05/06 15:10:36;;;;;;;57.60;2.50;;;9.00;99.90;;;;;;5114610;28;20616;-67
2021/05/06 15:13:02;;;;;;;57.37;2.40;;;8.90;99.90;;;;;;5114307;28;20523;-67
2021/05/06 15:15:29;;;;;;;57.47;2.30;;;8.80;99.90;;;;;;5114057;28;20495;-67
2021/05/06 15:17:57;;;;;;;57.37;2.23;;;8.70;99.90;;;;;;5110067;28;20549;-67
2021/05/06 15:20:25;;;;;;;57.40;2.10;;;8.70;99.90;;;;;;5113593;28;20478;-67
2021/05/06 15:22:51;;;;;;;57.30;2.30;;;8.70;99.90;;;;;;5114209;28;20521;-67